Schedule Details

Flight Number: CPX228
Departure: Ted Stevens Anchorage International Airport (PANC) at 0000 UTC
Arrival: Seattle-Tacoma International Airport (KSEA) at 0330 UTC
Route: NOEND4 NOEND LAIRE BKA DUGGS YYJ MARNR7


Current Weather Information
PANC 180644Z 21009KT 10SM FEW012 BKN022 OVC030 03/M01 A2985 RMK AO2 VIRGA NW-N T00331011
KSEA 180553Z 14005KT 10SM FEW026 SCT110 03/01 A3030 RMK AO2 SLP271 T00280011 10061 20022 51012

Route Map